sensor_id;sensor_type;location;lat;lon;timestamp;P1;durP1;ratioP1;P2;durP2;ratioP2
13733;SDS011;43298;52.560;13.508;2023-02-28T00:01:24;13.35;;;12.75;;
13733;SDS011;43298;52.560;13.508;2023-02-28T00:03:50;11.55;;;11.05;;
13733;SDS011;43298;52.560;13.508;2023-02-28T00:06:16;13.30;;;12.60;;
13733;SDS011;43298;52.560;13.508;2023-02-28T00:08:43;12.68;;;12.18;;
13733;SDS011;43298;52.560;13.508;2023-02-28T00:11:09;12.98;;;12.32;;
13733;SDS011;43298;52.560;13.508;2023-02-28T00:13:40;12.30;;;11.70;;
13733;SDS011;43298;52.560;13.508;2023-02-28T00:16:12;12.93;;;12.43;;
13733;SDS011;43298;52.560;13.508;2023-02-28T00:18:41;13.27;;;12.68;;
13733;SDS011;43298;52.560;13.508;2023-02-28T00:21:07;12.20;;;11.70;;
13733;SDS011;43298;52.560;13.508;2023-02-28T00:23:34;11.63;;;11.13;;
13733;SDS011;43298;52.560;13.508;2023-02-28T00:26:00;12.95;;;12.45;;
13733;SDS011;43298;52.560;13.508;2023-02-28T00:28:26;10.98;;;10.55;;
13733;SDS011;43298;52.560;13.508;2023-02-28T00:30:52;12.05;;;11.55;;
13733;SDS011;43298;52.560;13.508;2023-02-28T00:33:18;11.38;;;10.88;;
13733;SDS011;43298;52.560;13.508;2023-02-28T00:35:44;11.68;;;11.18;;
13733;SDS011;43298;52.560;13.508;2023-02-28T00:38:13;13.02;;;12.43;;
13733;SDS011;43298;52.560;13.508;2023-02-28T00:40:40;11.40;;;10.90;;
13733;SDS011;43298;52.560;13.508;2023-02-28T00:43:06;12.27;;;11.77;;
13733;SDS011;43298;52.560;13.508;2023-02-28T00:45:32;11.80;;;11.30;;
13733;SDS011;43298;52.560;13.508;2023-02-28T00:47:58;12.13;;;11.63;;
13733;SDS011;43298;52.560;13.508;2023-02-28T00:50:24;12.07;;;11.57;;
13733;SDS011;43298;52.560;13.508;2023-02-28T00:52:50;11.75;;;11.25;;
13733;SDS011;43298;52.560;13.508;2023-02-28T00:55:16;11.43;;;10.93;;
13733;SDS011;43298;52.560;13.508;2023-02-28T00:57:41;11.98;;;11.48;;
13733;SDS011;43298;52.560;13.508;2023-02-28T01:00:08;12.45;;;11.95;;
13733;SDS011;43298;52.560;13.508;2023-02-28T01:02:34;12.13;;;11.63;;
13733;SDS011;43298;52.560;13.508;2023-02-28T01:05:00;12.43;;;11.90;;
13733;SDS011;43298;52.560;13.508;2023-02-28T01:07:26;13.80;;;13.18;;
13733;SDS011;43298;52.560;13.508;2023-02-28T01:09:52;12.93;;;12.43;;
13733;SDS011;43298;52.560;13.508;2023-02-28T01:12:17;11.93;;;11.43;;
13733;SDS011;43298;52.560;13.508;2023-02-28T01:14:43;13.35;;;12.75;;
13733;SDS011;43298;52.560;13.508;2023-02-28T01:17:09;14.07;;;13.27;;
13733;SDS011;43298;52.560;13.508;2023-02-28T01:19:35;12.30;;;11.80;;
13733;SDS011;43298;52.560;13.508;2023-02-28T01:22:04;13.10;;;12.55;;
13733;SDS011;43298;52.560;13.508;2023-02-28T01:24:31;12.80;;;12.30;;
13733;SDS011;43298;52.560;13.508;2023-02-28T01:26:58;12.32;;;11.82;;
13733;SDS011;43298;52.560;13.508;2023-02-28T01:29:24;12.85;;;12.25;;
13733;SDS011;43298;52.560;13.508;2023-02-28T01:31:50;15.00;;;14.27;;
13733;SDS011;43298;52.560;13.508;2023-02-28T01:34:15;12.98;;;12.45;;
13733;SDS011;43298;52.560;13.508;2023-02-28T01:36:44;14.60;;;14.00;;
13733;SDS011;43298;52.560;13.508;2023-02-28T01:39:10;14.82;;;14.13;;
13733;SDS011;43298;52.560;13.508;2023-02-28T01:41:38;14.52;;;13.93;;
13733;SDS011;43298;52.560;13.508;2023-02-28T01:47:33;15.38;;;14.77;;
13733;SDS011;43298;52.560;13.508;2023-02-28T01:50:06;16.63;;;15.45;;
13733;SDS011;43298;52.560;13.508;2023-02-28T01:52:38;17.25;;;16.55;;
13733;SDS011;43298;52.560;13.508;2023-02-28T01:55:04;16.38;;;15.68;;
13733;SDS011;43298;52.560;13.508;2023-02-28T01:57:35;14.48;;;13.88;;
13733;SDS011;43298;52.560;13.508;2023-02-28T02:00:12;16.50;;;15.10;;
13733;SDS011;43298;52.560;13.508;2023-02-28T02:02:42;14.95;;;14.25;;
13733;SDS011;43298;52.560;13.508;2023-02-28T02:05:15;17.88;;;17.08;;
13733;SDS011;43298;52.560;13.508;2023-02-28T02:07:45;15.50;;;14.85;;
13733;SDS011;43298;52.560;13.508;2023-02-28T02:10:17;14.93;;;14.32;;
13733;SDS011;43298;52.560;13.508;2023-02-28T02:12:52;14.43;;;13.82;;
13733;SDS011;43298;52.560;13.508;2023-02-28T02:35:52;17.15;;;16.45;;
13733;SDS011;43298;52.560;13.508;2023-02-28T02:44:12;18.02;;;17.30;;
13733;SDS011;43298;52.560;13.508;2023-02-28T02:46:54;18.15;;;17.40;;
13733;SDS011;43298;52.560;13.508;2023-02-28T02:49:29;20.77;;;19.90;;
13733;SDS011;43298;52.560;13.508;2023-02-28T02:52:00;19.98;;;19.17;;
13733;SDS011;43298;52.560;13.508;2023-02-28T02:54:37;19.42;;;18.63;;
13733;SDS011;43298;52.560;13.508;2023-02-28T02:57:11;19.13;;;18.33;;
13733;SDS011;43298;52.560;13.508;2023-02-28T02:59:47;20.08;;;19.27;;
13733;SDS011;43298;52.560;13.508;2023-02-28T03:02:17;20.95;;;20.05;;
13733;SDS011;43298;52.560;13.508;2023-02-28T03:04:46;22.02;;;21.10;;
13733;SDS011;43298;52.560;13.508;2023-02-28T03:07:18;22.52;;;21.60;;
13733;SDS011;43298;52.560;13.508;2023-02-28T03:09:51;21.60;;;20.70;;
13733;SDS011;43298;52.560;13.508;2023-02-28T03:12:19;20.70;;;19.85;;
13733;SDS011;43298;52.560;13.508;2023-02-28T03:14:55;21.05;;;20.17;;
13733;SDS011;43298;52.560;13.508;2023-02-28T03:23:51;18.67;;;17.90;;
13733;SDS011;43298;52.560;13.508;2023-02-28T03:26:26;19.00;;;18.20;;
13733;SDS011;43298;52.560;13.508;2023-02-28T03:29:01;19.52;;;18.73;;
13733;SDS011;43298;52.560;13.508;2023-02-28T03:31:50;21.30;;;20.40;;
13733;SDS011;43298;52.560;13.508;2023-02-28T03:34:37;17.63;;;16.90;;
13733;SDS011;43298;52.560;13.508;2023-02-28T03:37:12;19.02;;;18.25;;
13733;SDS011;43298;52.560;13.508;2023-02-28T03:39:49;16.75;;;16.05;;
13733;SDS011;43298;52.560;13.508;2023-02-28T03:42:33;17.65;;;16.92;;
13733;SDS011;43298;52.560;13.508;2023-02-28T03:45:10;15.82;;;15.18;;
13733;SDS011;43298;52.560;13.508;2023-02-28T03:47:44;16.20;;;15.50;;
13733;SDS011;43298;52.560;13.508;2023-02-28T03:50:27;14.13;;;13.52;;
13733;SDS011;43298;52.560;13.508;2023-02-28T03:53:07;15.82;;;15.18;;
13733;SDS011;43298;52.560;13.508;2023-02-28T03:56:19;16.50;;;15.80;;
13733;SDS011;43298;52.560;13.508;2023-02-28T03:59:00;16.48;;;15.77;;
13733;SDS011;43298;52.560;13.508;2023-02-28T04:01:48;16.38;;;15.68;;
13733;SDS011;43298;52.560;13.508;2023-02-28T04:04:15;15.57;;;14.98;;
13733;SDS011;43298;52.560;13.508;2023-02-28T04:06:42;16.13;;;15.43;;
13733;SDS011;43298;52.560;13.508;2023-02-28T04:09:10;17.70;;;16.95;;
13733;SDS011;43298;52.560;13.508;2023-02-28T04:11:42;15.82;;;15.18;;
13733;SDS011;43298;52.560;13.508;2023-02-28T04:14:17;15.07;;;14.48;;
13733;SDS011;43298;52.560;13.508;2023-02-28T04:16:43;16.67;;;15.98;;
13733;SDS011;43298;52.560;13.508;2023-02-28T04:19:10;17.05;;;16.35;;
13733;SDS011;43298;52.560;13.508;2023-02-28T04:21:41;16.75;;;16.05;;
13733;SDS011;43298;52.560;13.508;2023-02-28T04:24:13;18.35;;;17.55;;
13733;SDS011;43298;52.560;13.508;2023-02-28T04:26:50;17.98;;;17.27;;
13733;SDS011;43298;52.560;13.508;2023-02-28T04:29:20;17.17;;;16.48;;
13733;SDS011;43298;52.560;13.508;2023-02-28T04:31:55;17.23;;;16.52;;
13733;SDS011;43298;52.560;13.508;2023-02-28T04:34:22;16.60;;;15.90;;
13733;SDS011;43298;52.560;13.508;2023-02-28T04:36:49;18.02;;;17.33;;
13733;SDS011;43298;52.560;13.508;2023-02-28T04:39:18;16.80;;;16.10;;
13733;SDS011;43298;52.560;13.508;2023-02-28T04:41:45;16.40;;;15.70;;
13733;SDS011;43298;52.560;13.508;2023-02-28T04:44:11;16.85;;;16.15;;
13733;SDS011;43298;52.560;13.508;2023-02-28T04:46:37;17.25;;;16.55;;
13733;SDS011;43298;52.560;13.508;2023-02-28T04:49:03;17.90;;;17.10;;
13733;SDS011;43298;52.560;13.508;2023-02-28T04:51:29;18.08;;;17.35;;
13733;SDS011;43298;52.560;13.508;2023-02-28T04:53:55;17.88;;;17.17;;
13733;SDS011;43298;52.560;13.508;2023-02-28T04:56:21;17.67;;;16.98;;
13733;SDS011;43298;52.560;13.508;2023-02-28T04:58:47;19.48;;;18.67;;
13733;SDS011;43298;52.560;13.508;2023-02-28T05:01:25;19.50;;;18.70;;
13733;SDS011;43298;52.560;13.508;2023-02-28T05:03:58;20.30;;;19.45;;
13733;SDS011;43298;52.560;13.508;2023-02-28T05:06:27;19.58;;;18.77;;
13733;SDS011;43298;52.560;13.508;2023-02-28T05:08:55;18.83;;;18.02;;
13733;SDS011;43298;52.560;13.508;2023-02-28T05:11:23;19.83;;;19.02;;
13733;SDS011;43298;52.560;13.508;2023-02-28T05:13:59;20.20;;;19.38;;
13733;SDS011;43298;52.560;13.508;2023-02-28T05:16:37;20.10;;;19.23;;
13733;SDS011;43298;52.560;13.508;2023-02-28T05:19:03;21.30;;;20.40;;
13733;SDS011;43298;52.560;13.508;2023-02-28T05:21:33;19.13;;;18.33;;
13733;SDS011;43298;52.560;13.508;2023-02-28T05:24:08;20.15;;;19.33;;
13733;SDS011;43298;52.560;13.508;2023-02-28T05:26:38;19.08;;;18.27;;
13733;SDS011;43298;52.560;13.508;2023-02-28T05:29:07;21.08;;;20.20;;
13733;SDS011;43298;52.560;13.508;2023-02-28T05:31:34;20.75;;;19.90;;
13733;SDS011;43298;52.560;13.508;2023-02-28T05:34:01;19.92;;;19.13;;
13733;SDS011;43298;52.560;13.508;2023-02-28T05:36:29;19.98;;;19.17;;
13733;SDS011;43298;52.560;13.508;2023-02-28T05:38:54;19.17;;;18.38;;
13733;SDS011;43298;52.560;13.508;2023-02-28T05:41:20;20.00;;;19.20;;
13733;SDS011;43298;52.560;13.508;2023-02-28T05:43:46;21.38;;;20.48;;
13733;SDS011;43298;52.560;13.508;2023-02-28T05:46:13;20.92;;;20.02;;
13733;SDS011;43298;52.560;13.508;2023-02-28T05:48:40;20.15;;;19.35;;
13733;SDS011;43298;52.560;13.508;2023-02-28T05:51:07;21.73;;;20.83;;
13733;SDS011;43298;52.560;13.508;2023-02-28T05:53:34;21.88;;;20.98;;
13733;SDS011;43298;52.560;13.508;2023-02-28T05:56:00;21.08;;;20.17;;
13733;SDS011;43298;52.560;13.508;2023-02-28T05:58:26;20.83;;;19.92;;
13733;SDS011;43298;52.560;13.508;2023-02-28T06:00:56;20.50;;;19.70;;
13733;SDS011;43298;52.560;13.508;2023-02-28T06:03:43;22.67;;;21.67;;
13733;SDS011;43298;52.560;13.508;2023-02-28T06:06:09;20.42;;;19.60;;
13733;SDS011;43298;52.560;13.508;2023-02-28T06:08:35;19.58;;;18.77;;
13733;SDS011;43298;52.560;13.508;2023-02-28T06:11:02;21.23;;;20.33;;
13733;SDS011;43298;52.560;13.508;2023-02-28T06:13:29;21.52;;;20.52;;
13733;SDS011;43298;52.560;13.508;2023-02-28T06:15:55;20.50;;;19.67;;
13733;SDS011;43298;52.560;13.508;2023-02-28T06:18:20;19.38;;;18.58;;
13733;SDS011;43298;52.560;13.508;2023-02-28T06:20:52;20.13;;;19.33;;
13733;SDS011;43298;52.560;13.508;2023-02-28T06:23:21;22.05;;;21.15;;
13733;SDS011;43298;52.560;13.508;2023-02-28T06:25:48;21.00;;;20.10;;
13733;SDS011;43298;52.560;13.508;2023-02-28T06:28:14;21.17;;;20.27;;
13733;SDS011;43298;52.560;13.508;2023-02-28T06:30:41;20.88;;;19.98;;
13733;SDS011;43298;52.560;13.508;2023-02-28T06:33:06;19.83;;;19.02;;
13733;SDS011;43298;52.560;13.508;2023-02-28T06:35:32;20.50;;;19.60;;
13733;SDS011;43298;52.560;13.508;2023-02-28T06:37:58;21.50;;;20.55;;
13733;SDS011;43298;52.560;13.508;2023-02-28T06:40:24;20.20;;;19.33;;
13733;SDS011;43298;52.560;13.508;2023-02-28T06:42:49;18.83;;;18.02;;
13733;SDS011;43298;52.560;13.508;2023-02-28T06:45:15;18.30;;;17.50;;
13733;SDS011;43298;52.560;13.508;2023-02-28T06:47:41;17.73;;;17.02;;
13733;SDS011;43298;52.560;13.508;2023-02-28T06:50:08;17.80;;;17.10;;
13733;SDS011;43298;52.560;13.508;2023-02-28T06:52:37;17.45;;;16.75;;
13733;SDS011;43298;52.560;13.508;2023-02-28T06:55:04;18.08;;;17.35;;
13733;SDS011;43298;52.560;13.508;2023-02-28T06:57:32;18.05;;;17.35;;
13733;SDS011;43298;52.560;13.508;2023-02-28T06:59:59;16.92;;;16.23;;
13733;SDS011;43298;52.560;13.508;2023-02-28T07:02:28;16.25;;;15.55;;
13733;SDS011;43298;52.560;13.508;2023-02-28T07:04:57;16.00;;;15.35;;
13733;SDS011;43298;52.560;13.508;2023-02-28T07:07:23;20.13;;;19.33;;
13733;SDS011;43298;52.560;13.508;2023-02-28T07:09:49;21.33;;;20.42;;
13733;SDS011;43298;52.560;13.508;2023-02-28T07:12:15;21.20;;;20.30;;
13733;SDS011;43298;52.560;13.508;2023-02-28T07:14:41;17.05;;;16.35;;
13733;SDS011;43298;52.560;13.508;2023-02-28T07:17:07;15.05;;;14.45;;
13733;SDS011;43298;52.560;13.508;2023-02-28T07:19:36;15.35;;;14.65;;
13733;SDS011;43298;52.560;13.508;2023-02-28T07:22:05;14.48;;;13.75;;
13733;SDS011;43298;52.560;13.508;2023-02-28T07:24:32;13.10;;;12.55;;
13733;SDS011;43298;52.560;13.508;2023-02-28T07:26:58;14.80;;;14.13;;
13733;SDS011;43298;52.560;13.508;2023-02-28T07:29:24;14.77;;;14.18;;
13733;SDS011;43298;52.560;13.508;2023-02-28T07:31:50;18.00;;;16.95;;
13733;SDS011;43298;52.560;13.508;2023-02-28T07:34:18;15.73;;;14.98;;
13733;SDS011;43298;52.560;13.508;2023-02-28T07:36:45;13.48;;;12.88;;
13733;SDS011;43298;52.560;13.508;2023-02-28T07:39:11;13.02;;;12.45;;
13733;SDS011;43298;52.560;13.508;2023-02-28T07:41:37;12.05;;;11.55;;
13733;SDS011;43298;52.560;13.508;2023-02-28T07:44:08;12.90;;;12.18;;
13733;SDS011;43298;52.560;13.508;2023-02-28T07:46:38;11.95;;;11.45;;
13733;SDS011;43298;52.560;13.508;2023-02-28T07:49:04;12.73;;;12.10;;
13733;SDS011;43298;52.560;13.508;2023-02-28T07:51:32;12.27;;;11.77;;
13733;SDS011;43298;52.560;13.508;2023-02-28T07:53:58;13.23;;;12.32;;
13733;SDS011;43298;52.560;13.508;2023-02-28T07:56:24;12.32;;;11.80;;
13733;SDS011;43298;52.560;13.508;2023-02-28T07:58:49;12.15;;;11.63;;
13733;SDS011;43298;52.560;13.508;2023-02-28T08:01:15;10.98;;;10.48;;
13733;SDS011;43298;52.560;13.508;2023-02-28T08:03:42;11.75;;;11.05;;
13733;SDS011;43298;52.560;13.508;2023-02-28T08:06:09;10.73;;;10.23;;
13733;SDS011;43298;52.560;13.508;2023-02-28T08:08:47;12.48;;;11.70;;
13733;SDS011;43298;52.560;13.508;2023-02-28T08:11:13;12.73;;;12.02;;
13733;SDS011;43298;52.560;13.508;2023-02-28T08:13:39;13.07;;;12.48;;
13733;SDS011;43298;52.560;13.508;2023-02-28T08:16:07;11.32;;;10.82;;
13733;SDS011;43298;52.560;13.508;2023-02-28T08:18:33;11.82;;;11.13;;
13733;SDS011;43298;52.560;13.508;2023-02-28T08:20:59;9.93;;;9.52;;
13733;SDS011;43298;52.560;13.508;2023-02-28T08:23:30;12.10;;;11.40;;
13733;SDS011;43298;52.560;13.508;2023-02-28T08:25:55;10.10;;;9.65;;
13733;SDS011;43298;52.560;13.508;2023-02-28T08:28:22;9.45;;;8.88;;
13733;SDS011;43298;52.560;13.508;2023-02-28T08:30:48;10.00;;;9.60;;
13733;SDS011;43298;52.560;13.508;2023-02-28T08:33:14;10.25;;;9.75;;
13733;SDS011;43298;52.560;13.508;2023-02-28T08:35:39;10.52;;;10.02;;
13733;SDS011;43298;52.560;13.508;2023-02-28T08:38:05;10.13;;;9.73;;
13733;SDS011;43298;52.560;13.508;2023-02-28T08:40:31;10.52;;;10.02;;
13733;SDS011;43298;52.560;13.508;2023-02-28T08:42:57;9.35;;;8.95;;
13733;SDS011;43298;52.560;13.508;2023-02-28T08:45:23;9.35;;;8.85;;
13733;SDS011;43298;52.560;13.508;2023-02-28T08:47:49;9.30;;;8.90;;
13733;SDS011;43298;52.560;13.508;2023-02-28T08:50:17;8.80;;;8.32;;
13733;SDS011;43298;52.560;13.508;2023-02-28T08:52:43;8.85;;;8.45;;
13733;SDS011;43298;52.560;13.508;2023-02-28T08:55:09;10.38;;;9.88;;
13733;SDS011;43298;52.560;13.508;2023-02-28T08:57:35;9.82;;;9.43;;
13733;SDS011;43298;52.560;13.508;2023-02-28T09:00:02;10.63;;;10.18;;
13733;SDS011;43298;52.560;13.508;2023-02-28T09:02:29;9.90;;;9.50;;
13733;SDS011;43298;52.560;13.508;2023-02-28T09:04:56;10.35;;;9.95;;
13733;SDS011;43298;52.560;13.508;2023-02-28T09:07:23;10.43;;;9.98;;
13733;SDS011;43298;52.560;13.508;2023-02-28T09:09:49;9.98;;;9.57;;
13733;SDS011;43298;52.560;13.508;2023-02-28T09:12:26;11.75;;;11.25;;
13733;SDS011;43298;52.560;13.508;2023-02-28T09:14:56;14.05;;;13.45;;
13733;SDS011;43298;52.560;13.508;2023-02-28T09:17:22;12.15;;;11.65;;
13733;SDS011;43298;52.560;13.508;2023-02-28T09:19:48;10.43;;;10.02;;
13733;SDS011;43298;52.560;13.508;2023-02-28T09:22:14;10.80;;;10.40;;
13733;SDS011;43298;52.560;13.508;2023-02-28T09:24:40;9.80;;;9.30;;
13733;SDS011;43298;52.560;13.508;2023-02-28T09:27:06;10.95;;;10.30;;
13733;SDS011;43298;52.560;13.508;2023-02-28T09:29:32;10.05;;;9.65;;
13733;SDS011;43298;52.560;13.508;2023-02-28T09:31:59;9.95;;;9.55;;
13733;SDS011;43298;52.560;13.508;2023-02-28T09:34:26;10.43;;;10.02;;
13733;SDS011;43298;52.560;13.508;2023-02-28T09:36:53;10.18;;;9.77;;
13733;SDS011;43298;52.560;13.508;2023-02-28T09:39:20;11.45;;;10.95;;
13733;SDS011;43298;52.560;13.508;2023-02-28T09:41:49;10.50;;;9.90;;
13733;SDS011;43298;52.560;13.508;2023-02-28T09:44:38;10.10;;;9.70;;
13733;SDS011;43298;52.560;13.508;2023-02-28T09:47:12;9.82;;;9.30;;
13733;SDS011;43298;52.560;13.508;2023-02-28T09:52:51;10.13;;;9.73;;
13733;SDS011;43298;52.560;13.508;2023-02-28T09:57:58;9.02;;;8.63;;
13733;SDS011;43298;52.560;13.508;2023-02-28T10:00:30;10.40;;;10.00;;
13733;SDS011;43298;52.560;13.508;2023-02-28T10:03:10;9.88;;;9.48;;
13733;SDS011;43298;52.560;13.508;2023-02-28T10:06:35;9.55;;;9.15;;
13733;SDS011;43298;52.560;13.508;2023-02-28T10:09:17;9.15;;;8.75;;
13733;SDS011;43298;52.560;13.508;2023-02-28T10:11:50;10.07;;;9.57;;
13733;SDS011;43298;52.560;13.508;2023-02-28T10:14:24;10.38;;;9.77;;
13733;SDS011;43298;52.560;13.508;2023-02-28T10:16:55;9.95;;;9.50;;
13733;SDS011;43298;52.560;13.508;2023-02-28T10:19:34;9.13;;;8.73;;
13733;SDS011;43298;52.560;13.508;2023-02-28T10:24:50;9.50;;;9.10;;
13733;SDS011;43298;52.560;13.508;2023-02-28T10:27:19;9.45;;;9.05;;
13733;SDS011;43298;52.560;13.508;2023-02-28T10:29:52;10.35;;;9.95;;
13733;SDS011;43298;52.560;13.508;2023-02-28T10:32:22;9.32;;;8.93;;
13733;SDS011;43298;52.560;13.508;2023-02-28T10:35:16;9.60;;;9.10;;
13733;SDS011;43298;52.560;13.508;2023-02-28T10:37:47;10.25;;;9.85;;
13733;SDS011;43298;52.560;13.508;2023-02-28T10:42:57;9.57;;;9.18;;
13733;SDS011;43298;52.560;13.508;2023-02-28T10:46:02;10.18;;;9.75;;
13733;SDS011;43298;52.560;13.508;2023-02-28T10:49:41;10.43;;;9.98;;
13733;SDS011;43298;52.560;13.508;2023-02-28T10:51:55;12.10;;;11.48;;
13733;SDS011;43298;52.560;13.508;2023-02-28T10:54:34;9.95;;;9.43;;
13733;SDS011;43298;52.560;13.508;2023-02-28T10:57:19;10.13;;;9.73;;
13733;SDS011;43298;52.560;13.508;2023-02-28T10:59:52;13.65;;;12.38;;
13733;SDS011;43298;52.560;13.508;2023-02-28T11:02:39;11.45;;;10.82;;
13733;SDS011;43298;52.560;13.508;2023-02-28T11:08:15;11.52;;;10.35;;
13733;SDS011;43298;52.560;13.508;2023-02-28T11:10:46;9.70;;;9.30;;
13733;SDS011;43298;52.560;13.508;2023-02-28T11:13:20;9.85;;;9.38;;
13733;SDS011;43298;52.560;13.508;2023-02-28T11:15:54;9.30;;;8.90;;
13733;SDS011;43298;52.560;13.508;2023-02-28T11:18:30;10.38;;;9.88;;
13733;SDS011;43298;52.560;13.508;2023-02-28T11:21:19;11.15;;;10.52;;
13733;SDS011;43298;52.560;13.508;2023-02-28T11:26:56;12.57;;;11.98;;
13733;SDS011;43298;52.560;13.508;2023-02-28T11:29:23;9.88;;;9.48;;
13733;SDS011;43298;52.560;13.508;2023-02-28T11:32:05;9.90;;;9.50;;
13733;SDS011;43298;52.560;13.508;2023-02-28T11:34:32;9.60;;;9.20;;
13733;SDS011;43298;52.560;13.508;2023-02-28T11:36:58;10.15;;;9.68;;
13733;SDS011;43298;52.560;13.508;2023-02-28T11:39:26;9.85;;;9.45;;
13733;SDS011;43298;52.560;13.508;2023-02-28T11:47:17;9.93;;;9.52;;
13733;SDS011;43298;52.560;13.508;2023-02-28T11:53:16;10.95;;;10.45;;
13733;SDS011;43298;52.560;13.508;2023-02-28T12:01:56;10.93;;;10.43;;
13733;SDS011;43298;52.560;13.508;2023-02-28T12:07:47;9.45;;;9.05;;
13733;SDS011;43298;52.560;13.508;2023-02-28T12:10:51;10.27;;;9.73;;
13733;SDS011;43298;52.560;13.508;2023-02-28T12:14:03;9.23;;;8.82;;
13733;SDS011;43298;52.560;13.508;2023-02-28T12:17:04;9.75;;;9.35;;
13733;SDS011;43298;52.560;13.508;2023-02-28T12:28:24;9.95;;;9.43;;
13733;SDS011;43298;52.560;13.508;2023-02-28T12:31:04;8.75;;;8.35;;
13733;SDS011;43298;52.560;13.508;2023-02-28T12:33:53;10.35;;;9.88;;
13733;SDS011;43298;52.560;13.508;2023-02-28T12:36:41;10.77;;;10.23;;
13733;SDS011;43298;52.560;13.508;2023-02-28T12:39:12;11.07;;;10.10;;
13733;SDS011;43298;52.560;13.508;2023-02-28T12:41:41;9.95;;;9.55;;
13733;SDS011;43298;52.560;13.508;2023-02-28T12:44:33;10.18;;;9.73;;
13733;SDS011;43298;52.560;13.508;2023-02-28T12:47:15;10.82;;;10.27;;
13733;SDS011;43298;52.560;13.508;2023-02-28T12:49:45;10.63;;;10.02;;
13733;SDS011;43298;52.560;13.508;2023-02-28T12:52:32;10.15;;;9.75;;
13733;SDS011;43298;52.560;13.508;2023-02-28T12:58:34;10.63;;;10.10;;
13733;SDS011;43298;52.560;13.508;2023-02-28T13:10:37;10.68;;;10.18;;
13733;SDS011;43298;52.560;13.508;2023-02-28T13:13:16;9.60;;;9.20;;
13733;SDS011;43298;52.560;13.508;2023-02-28T13:18:35;9.95;;;9.55;;
13733;SDS011;43298;52.560;13.508;2023-02-28T13:21:05;9.13;;;8.73;;
13733;SDS011;43298;52.560;13.508;2023-02-28T13:23:36;10.38;;;9.93;;
13733;SDS011;43298;52.560;13.508;2023-02-28T13:28:59;11.32;;;10.73;;
13733;SDS011;43298;52.560;13.508;2023-02-28T13:34:36;10.85;;;10.35;;
13733;SDS011;43298;52.560;13.508;2023-02-28T13:37:32;10.75;;;10.23;;
13733;SDS011;43298;52.560;13.508;2023-02-28T13:40:45;10.10;;;9.70;;
13733;SDS011;43298;52.560;13.508;2023-02-28T13:43:06;10.50;;;9.95;;
13733;SDS011;43298;52.560;13.508;2023-02-28T13:45:34;10.55;;;10.05;;
13733;SDS011;43298;52.560;13.508;2023-02-28T13:48:24;9.02;;;8.63;;
13733;SDS011;43298;52.560;13.508;2023-02-28T13:50:51;8.88;;;8.48;;
13733;SDS011;43298;52.560;13.508;2023-02-28T13:56:25;9.77;;;9.38;;
13733;SDS011;43298;52.560;13.508;2023-02-28T13:59:06;11.10;;;10.52;;
13733;SDS011;43298;52.560;13.508;2023-02-28T14:05:06;10.40;;;9.90;;
13733;SDS011;43298;52.560;13.508;2023-02-28T14:07:42;9.45;;;9.05;;
13733;SDS011;43298;52.560;13.508;2023-02-28T14:10:21;9.50;;;9.10;;
13733;SDS011;43298;52.560;13.508;2023-02-28T14:13:02;8.57;;;8.18;;
13733;SDS011;43298;52.560;13.508;2023-02-28T14:16:00;9.60;;;9.20;;
13733;SDS011;43298;52.560;13.508;2023-02-28T14:18:32;10.18;;;9.35;;
13733;SDS011;43298;52.560;13.508;2023-02-28T14:24:25;9.27;;;8.88;;
13733;SDS011;43298;52.560;13.508;2023-02-28T14:27:48;9.52;;;9.13;;
13733;SDS011;43298;52.560;13.508;2023-02-28T14:33:27;10.98;;;10.48;;
13733;SDS011;43298;52.560;13.508;2023-02-28T14:36:37;9.68;;;9.27;;
13733;SDS011;43298;52.560;13.508;2023-02-28T14:39:10;10.52;;;10.05;;
13733;SDS011;43298;52.560;13.508;2023-02-28T14:41:41;10.27;;;9.55;;
13733;SDS011;43298;52.560;13.508;2023-02-28T14:44:25;10.00;;;9.60;;
13733;SDS011;43298;52.560;13.508;2023-02-28T14:46:56;10.85;;;10.23;;
13733;SDS011;43298;52.560;13.508;2023-02-28T14:54:35;11.52;;;11.02;;
13733;SDS011;43298;52.560;13.508;2023-02-28T14:57:05;11.13;;;10.52;;
13733;SDS011;43298;52.560;13.508;2023-02-28T14:59:32;9.88;;;9.27;;
13733;SDS011;43298;52.560;13.508;2023-02-28T15:04:54;10.25;;;9.75;;
13733;SDS011;43298;52.560;13.508;2023-02-28T15:07:26;9.52;;;9.13;;
13733;SDS011;43298;52.560;13.508;2023-02-28T15:10:08;10.63;;;10.13;;
13733;SDS011;43298;52.560;13.508;2023-02-28T15:12:48;12.07;;;11.55;;
13733;SDS011;43298;52.560;13.508;2023-02-28T15:15:21;11.02;;;10.38;;
13733;SDS011;43298;52.560;13.508;2023-02-28T15:18:22;11.13;;;10.30;;
13733;SDS011;43298;52.560;13.508;2023-02-28T15:21:05;10.63;;;10.15;;
13733;SDS011;43298;52.560;13.508;2023-02-28T15:23:37;12.65;;;11.90;;
13733;SDS011;43298;52.560;13.508;2023-02-28T15:26:09;11.02;;;10.52;;
13733;SDS011;43298;52.560;13.508;2023-02-28T15:28:44;10.90;;;10.40;;
13733;SDS011;43298;52.560;13.508;2023-02-28T15:31:21;10.90;;;10.40;;
13733;SDS011;43298;52.560;13.508;2023-02-28T15:34:02;10.45;;;9.95;;
13733;SDS011;43298;52.560;13.508;2023-02-28T15:36:32;12.82;;;12.07;;
13733;SDS011;43298;52.560;13.508;2023-02-28T15:39:02;18.40;;;14.35;;
13733;SDS011;43298;52.560;13.508;2023-02-28T15:41:51;12.35;;;11.75;;
13733;SDS011;43298;52.560;13.508;2023-02-28T15:44:56;12.23;;;11.48;;
13733;SDS011;43298;52.560;13.508;2023-02-28T15:47:23;11.77;;;10.95;;
13733;SDS011;43298;52.560;13.508;2023-02-28T15:49:52;11.90;;;11.40;;
13733;SDS011;43298;52.560;13.508;2023-02-28T15:52:37;11.23;;;10.73;;
13733;SDS011;43298;52.560;13.508;2023-02-28T15:57:55;11.48;;;10.98;;
13733;SDS011;43298;52.560;13.508;2023-02-28T16:00:25;10.13;;;9.73;;
13733;SDS011;43298;52.560;13.508;2023-02-28T16:02:53;11.35;;;10.82;;
13733;SDS011;43298;52.560;13.508;2023-02-28T16:07:53;9.60;;;9.20;;
13733;SDS011;43298;52.560;13.508;2023-02-28T16:10:26;10.63;;;10.13;;
13733;SDS011;43298;52.560;13.508;2023-02-28T16:12:54;11.38;;;10.68;;
13733;SDS011;43298;52.560;13.508;2023-02-28T16:15:25;10.38;;;9.98;;
13733;SDS011;43298;52.560;13.508;2023-02-28T16:17:58;11.55;;;11.05;;
13733;SDS011;43298;52.560;13.508;2023-02-28T16:20:26;11.80;;;11.20;;
13733;SDS011;43298;52.560;13.508;2023-02-28T16:22:54;9.98;;;9.57;;
13733;SDS011;43298;52.560;13.508;2023-02-28T16:25:25;11.55;;;11.05;;
13733;SDS011;43298;52.560;13.508;2023-02-28T16:27:59;11.27;;;10.77;;
13733;SDS011;43298;52.560;13.508;2023-02-28T16:30:26;10.85;;;10.43;;
13733;SDS011;43298;52.560;13.508;2023-02-28T16:32:56;11.52;;;11.02;;
13733;SDS011;43298;52.560;13.508;2023-02-28T16:35:23;12.18;;;11.32;;
13733;SDS011;43298;52.560;13.508;2023-02-28T16:37:51;11.85;;;11.35;;
13733;SDS011;43298;52.560;13.508;2023-02-28T16:40:19;19.00;;;18.15;;
13733;SDS011;43298;52.560;13.508;2023-02-28T16:42:48;11.77;;;11.20;;
13733;SDS011;43298;52.560;13.508;2023-02-28T16:45:18;12.15;;;11.30;;
13733;SDS011;43298;52.560;13.508;2023-02-28T16:47:49;11.85;;;11.35;;
13733;SDS011;43298;52.560;13.508;2023-02-28T16:50:28;11.60;;;11.10;;